Time;durP1;ratioP1;P1;durP2;ratioP2;P2;SDS_P1;SDS_P2;PMS_P1;PMS_P2;Temp;Humidity;BMP_temperature;BMP_pressure;BME280_temperature;BME280_humidity;BME280_pressure;Samples;Min_cycle;Max_cycle;Signal;HPM_P1;HPM_P2
2022/05/05 00:01:57;;;;;;;6.92;2.30;;;;;;;8.63;100.00;100959.82;1712602;83;21411;-78
2022/05/05 00:04:24;;;;;;;4.47;2.40;;;;;;;8.57;100.00;100966.25;1712540;83;21034;-78
2022/05/05 00:06:51;;;;;;;3.67;2.10;;;;;;;8.55;100.00;100965.50;1712841;83;21058;-78
2022/05/05 00:09:19;;;;;;;3.42;2.15;;;;;;;8.50;100.00;100963.63;1712500;83;21062;-78
2022/05/05 00:14:32;;;;;;;3.52;2.08;;;;;;;8.38;100.00;100971.66;1712560;83;21172;-78
2022/05/05 00:17:08;;;;;;;3.80;2.30;;;;;;;8.32;100.00;100969.00;1712431;83;21093;-78
2022/05/05 00:19:41;;;;;;;2.77;2.20;;;;;;;8.28;100.00;100974.45;1712629;83;21023;-78
2022/05/05 00:22:09;;;;;;;5.67;2.45;;;;;;;8.23;100.00;100973.43;1712594;83;21583;-79
2022/05/05 00:24:38;;;;;;;3.87;2.10;;;;;;;8.19;100.00;100975.38;1712735;83;21073;-78
2022/05/05 00:27:07;;;;;;;5.25;2.20;;;;;;;8.14;100.00;100983.88;1712790;83;21268;-79
2022/05/05 00:29:34;;;;;;;5.50;2.50;;;;;;;8.10;100.00;100978.95;1712805;83;21086;-79
2022/05/05 00:32:03;;;;;;;4.95;2.55;;;;;;;8.05;100.00;100990.92;1712400;83;21078;-78
2022/05/05 00:34:31;;;;;;;4.47;2.08;;;;;;;7.99;100.00;100986.92;1712686;83;21521;-78
2022/05/05 00:36:58;;;;;;;3.55;2.30;;;;;;;7.96;100.00;100988.39;1710558;83;21034;-80
2022/05/05 00:39:25;;;;;;;4.20;2.12;;;;;;;7.94;100.00;100998.01;1707042;83;21165;-77
2022/05/05 00:41:53;;;;;;;3.85;2.40;;;;;;;7.95;100.00;100993.67;1706784;83;21019;-77
2022/05/05 00:44:21;;;;;;;4.17;2.27;;;;;;;7.92;100.00;100999.02;1707463;83;21592;-78
2022/05/05 00:46:51;;;;;;;5.17;2.30;;;;;;;7.86;100.00;100999.77;1707177;84;21075;-79
2022/05/05 00:49:20;;;;;;;6.05;2.17;;;;;;;7.83;100.00;101002.99;1706977;84;21929;-83
2022/05/05 00:51:47;;;;;;;7.97;2.83;;;;;;;7.81;100.00;101006.13;1707026;84;21615;-78
2022/05/05 00:54:14;;;;;;;6.67;2.42;;;;;;;7.78;100.00;101000.66;1707052;83;21089;-78
2022/05/05 00:56:45;;;;;;;3.83;2.47;;;;;;;7.79;100.00;100996.30;1679130;84;21011;-78
2022/05/05 00:59:12;;;;;;;4.75;2.22;;;;;;;7.77;100.00;101008.06;1707148;83;21058;-77
2022/05/05 01:01:41;;;;;;;4.83;2.72;;;;;;;7.77;100.00;101005.95;1707115;83;21030;-78
2022/05/05 01:04:08;;;;;;;4.67;2.45;;;;;;;7.77;100.00;101010.66;1707038;83;21253;-78
2022/05/05 01:06:36;;;;;;;4.00;2.00;;;;;;;7.75;100.00;101012.49;1706560;84;21596;-78
2022/05/05 01:09:05;;;;;;;4.35;2.08;;;;;;;7.74;100.00;101006.48;1707107;83;20972;-79
2022/05/05 01:11:32;;;;;;;6.47;2.40;;;;;;;7.76;100.00;101008.98;1707088;83;21055;-78
2022/05/05 01:14:00;;;;;;;3.40;2.30;;;;;;;7.76;100.00;101011.57;1706918;83;21055;-77
2022/05/05 01:16:29;;;;;;;7.30;2.52;;;;;;;7.75;100.00;101012.49;1707064;83;21189;-79
2022/05/05 01:18:56;;;;;;;3.87;2.20;;;;;;;7.74;100.00;101017.30;1706827;83;21062;-79
2022/05/05 01:21:24;;;;;;;4.83;2.17;;;;;;;7.72;100.00;101016.09;1706807;83;21073;-77
2022/05/05 01:23:51;;;;;;;4.35;2.30;;;;;;;7.72;100.00;101013.98;1707023;83;21043;-78
2022/05/05 01:29:06;;;;;;;8.05;2.40;;;;;;;7.71;100.00;101027.86;1617922;88;21788;-78
2022/05/05 01:31:33;;;;;;;5.85;2.37;;;;;;;7.69;100.00;101030.99;1617230;88;21702;-78
2022/05/05 01:34:01;;;;;;;3.22;2.35;;;;;;;7.66;100.00;101027.27;1649185;83;21077;-77
2022/05/05 01:36:30;;;;;;;7.72;2.95;;;;;;;7.63;100.00;101029.58;1706914;83;21055;-78
2022/05/05 01:38:57;;;;;;;4.85;2.55;;;;;;;7.61;100.00;101031.41;1706993;83;20959;-78
2022/05/05 01:41:25;;;;;;;4.37;2.10;;;;;;;7.60;100.00;101039.28;1707175;83;22689;-79
2022/05/05 01:43:52;;;;;;;6.35;2.15;;;;;;;7.58;100.00;101044.08;1706926;83;21114;-79
2022/05/05 01:46:19;;;;;;;7.92;2.90;;;;;;;7.55;100.00;101046.01;1707374;83;21062;-78
2022/05/05 01:48:46;;;;;;;7.78;2.50;;;;;;;7.53;100.00;101056.47;1706894;84;21501;-78
2022/05/05 01:51:14;;;;;;;3.58;2.40;;;;;;;7.50;100.00;101065.70;1707407;84;21690;-79
2022/05/05 01:53:41;;;;;;;5.10;2.45;;;;;;;7.47;100.00;101063.30;1707003;84;21165;-79
2022/05/05 01:56:14;;;;;;;3.02;2.30;;;;;;;7.45;100.00;101069.02;1707277;83;21695;-78
2022/05/05 01:58:43;;;;;;;4.42;2.10;;;;;;;7.43;100.00;101065.66;1706960;84;21610;-77
2022/05/05 02:01:11;;;;;;;8.63;2.45;;;;;;;7.41;100.00;101072.70;1707048;83;21023;-77
2022/05/05 02:03:39;;;;;;;4.60;2.50;;;;;;;7.38;100.00;101079.34;1706964;83;21160;-77
2022/05/05 02:06:07;;;;;;;5.03;2.22;;;;;;;7.35;100.00;101080.79;1707001;83;21092;-82
2022/05/05 02:08:36;;;;;;;3.98;2.33;;;;;;;7.31;100.00;101090.48;1707001;83;21540;-77
2022/05/05 02:11:05;;;;;;;5.47;2.20;;;;;;;7.30;100.00;101088.81;1707274;84;21687;-78
2022/05/05 02:13:32;;;;;;;4.55;2.62;;;;;;;7.29;100.00;101091.02;1706823;84;21050;-77
2022/05/05 02:15:59;;;;;;;5.75;2.55;;;;;;;7.28;100.00;101095.84;1706980;84;21105;-77
2022/05/05 02:18:27;;;;;;;7.30;2.80;;;;;;;7.28;100.00;101096.29;1706842;83;21153;-77
2022/05/05 02:20:54;;;;;;;5.08;2.17;;;;;;;7.27;100.00;101098.05;1706838;83;21062;-77
2022/05/05 02:23:22;;;;;;;4.50;2.22;;;;;;;7.28;100.00;101106.66;1706550;83;21074;-78
2022/05/05 02:25:49;;;;;;;3.92;2.52;;;;;;;7.26;100.00;101110.63;1706939;83;21047;-77
2022/05/05 02:28:17;;;;;;;6.25;2.45;;;;;;;7.26;100.00;101117.92;1706755;84;21077;-79
2022/05/05 02:30:44;;;;;;;4.33;2.70;;;;;;;7.27;100.00;101121.37;1706982;83;21324;-77
2022/05/05 02:33:11;;;;;;;4.08;2.40;;;;;;;7.27;100.00;101123.96;1706923;83;21566;-76
2022/05/05 02:35:39;;;;;;;4.90;2.42;;;;;;;7.25;100.00;101124.02;1679159;84;20996;-78
2022/05/05 02:40:52;;;;;;;6.05;2.80;;;;;;;7.24;100.00;101128.85;1707108;83;21015;-76
2022/05/05 02:43:19;;;;;;;6.47;2.25;;;;;;;7.25;100.00;101134.86;1707122;84;21979;-76
2022/05/05 02:45:47;;;;;;;6.00;2.60;;;;;;;7.26;100.00;101143.01;1706834;83;21054;-76
2022/05/05 02:48:14;;;;;;;4.78;2.33;;;;;;;7.24;100.00;101139.22;1706743;83;21063;-79
2022/05/05 02:50:42;;;;;;;6.08;2.40;;;;;;;7.26;100.00;101149.02;1706588;83;21003;-79
2022/05/05 02:55:54;;;;;;;6.97;2.75;;;;;;;7.25;100.00;101156.88;1706816;84;21290;-77
2022/05/05 02:58:22;;;;;;;3.65;2.33;;;;;;;7.24;100.00;101156.05;1706796;83;21125;-78
2022/05/05 03:00:49;;;;;;;3.90;2.67;;;;;;;7.25;100.00;101162.87;1707173;83;21018;-77
2022/05/05 03:03:16;;;;;;;4.50;2.70;;;;;;;7.24;100.00;101168.15;1678804;84;21070;-79
2022/05/05 03:05:44;;;;;;;5.03;2.70;;;;;;;7.23;100.00;101175.54;1706925;83;21078;-79
2022/05/05 03:08:11;;;;;;;10.43;2.47;;;;;;;7.24;100.00;101184.55;1707087;84;21157;-77
2022/05/05 03:10:40;;;;;;;7.42;2.58;;;;;;;7.24;100.00;101183.70;1706907;83;21117;-77
2022/05/05 03:13:07;;;;;;;10.30;3.30;;;;;;;7.24;100.00;101187.14;1707335;83;21039;-76
2022/05/05 03:15:34;;;;;;;8.30;4.05;;;;;;;7.24;100.00;101191.46;1706605;83;21173;-76
2022/05/05 03:18:01;;;;;;;9.45;4.00;;;;;;;7.26;100.00;101192.23;1707347;83;21113;-79
2022/05/05 03:20:28;;;;;;;5.80;4.08;;;;;;;7.25;100.00;101199.15;1702380;83;21969;-77
2022/05/05 03:22:56;;;;;;;8.43;4.78;;;;;;;7.27;100.00;101192.61;1706528;83;21090;-78
2022/05/05 03:25:23;;;;;;;9.68;4.62;;;;;;;7.29;100.00;101204.18;1682174;83;21058;-77
2022/05/05 03:27:50;;;;;;;7.75;3.05;;;;;;;7.30;100.00;101207.16;1703846;84;22316;-77
2022/05/05 03:30:18;;;;;;;6.30;2.83;;;;;;;7.31;100.00;101202.36;1707021;84;21043;-79
2022/05/05 03:32:45;;;;;;;6.80;2.75;;;;;;;7.31;100.00;101207.53;1706684;83;21314;-81
2022/05/05 03:35:12;;;;;;;6.55;2.60;;;;;;;7.34;100.00;101213.83;1706933;83;21076;-81
2022/05/05 03:37:40;;;;;;;6.60;2.72;;;;;;;7.38;100.00;101217.95;1708116;83;21094;-81
2022/05/05 03:40:08;;;;;;;4.45;2.75;;;;;;;7.41;100.00;101213.45;1712511;83;21075;-77
2022/05/05 03:42:36;;;;;;;8.68;3.10;;;;;;;7.44;100.00;101211.16;1712439;83;21051;-78
2022/05/05 03:45:04;;;;;;;5.67;2.87;;;;;;;7.47;100.00;101216.19;1712250;83;21153;-77
2022/05/05 03:47:31;;;;;;;7.62;2.80;;;;;;;7.52;100.00;101215.95;1712574;83;21577;-77
2022/05/05 03:49:58;;;;;;;6.42;2.67;;;;;;;7.54;100.00;101216.23;1712384;83;20992;-77
2022/05/05 03:52:25;;;;;;;5.60;2.58;;;;;;;7.62;100.00;101218.88;1712465;83;21031;-77
2022/05/05 03:54:52;;;;;;;5.92;2.72;;;;;;;7.67;100.00;101220.76;1712267;83;21055;-77
2022/05/05 03:57:19;;;;;;;5.53;2.25;;;;;;;7.74;100.00;101225.98;1712168;83;21141;-82
2022/05/05 03:59:46;;;;;;;3.85;2.30;;;;;;;7.81;100.00;101231.22;1712919;83;21117;-78
2022/05/05 04:02:13;;;;;;;5.85;2.62;;;;;;;7.88;100.00;101233.89;1712509;83;21082;-77
2022/05/05 04:04:41;;;;;;;3.37;2.30;;;;;;;7.97;100.00;101239.03;1712567;83;22322;-81
2022/05/05 04:07:08;;;;;;;4.67;2.40;;;;;;;8.04;100.00;101236.47;1712431;83;21134;-78
2022/05/05 04:09:35;;;;;;;3.42;2.35;;;;;;;8.11;100.00;101239.58;1712292;83;21112;-77
2022/05/05 04:12:03;;;;;;;4.53;2.65;;;;;;;8.17;100.00;101253.50;1712491;83;21540;-76
2022/05/05 04:14:33;;;;;;;10.18;2.40;;;;;;;8.24;100.00;101252.72;1712509;83;21563;-77
2022/05/05 04:17:01;;;;;;;6.42;2.80;;;;;;;8.30;100.00;101250.22;1712554;83;21162;-75
2022/05/05 04:19:28;;;;;;;5.67;2.42;;;;;;;8.36;100.00;101252.50;1712374;83;21023;-77
2022/05/05 04:21:55;;;;;;;7.00;2.52;;;;;;;8.41;100.00;101253.06;1712687;83;21141;-77
2022/05/05 04:24:22;;;;;;;3.45;2.10;;;;;;;8.48;100.00;101260.91;1712070;83;21575;-76
2022/05/05 04:26:50;;;;;;;2.80;2.10;;;;;;;8.56;100.00;101260.94;1712749;83;21074;-77
2022/05/05 04:29:17;;;;;;;5.33;2.35;;;;;;;8.65;100.00;101269.52;1712436;83;21026;-76
2022/05/05 04:31:44;;;;;;;5.47;2.10;;;;;;;8.72;100.00;101265.64;1712354;83;21129;-77
2022/05/05 04:34:12;;;;;;;6.17;2.12;;;;;;;8.81;100.00;101266.42;1712459;83;21412;-76
2022/05/05 04:36:39;;;;;;;3.02;2.22;;;;;;;8.92;100.00;101275.36;1712778;83;20979;-77
2022/05/05 04:39:07;;;;;;;7.28;2.50;;;;;;;9.02;100.00;101278.26;1714589;83;21643;-78
2022/05/05 04:41:34;;;;;;;6.55;2.30;;;;;;;9.08;100.00;101278.75;1720084;82;21160;-77
2022/05/05 04:44:01;;;;;;;5.87;2.37;;;;;;;9.16;100.00;101283.48;1720056;83;21549;-77
2022/05/05 04:46:28;;;;;;;4.42;2.20;;;;;;;9.23;100.00;101278.30;1720234;83;21112;-76
2022/05/05 04:48:56;;;;;;;7.15;2.45;;;;;;;9.31;100.00;101290.85;1720317;83;20994;-77
2022/05/05 04:51:23;;;;;;;3.10;1.80;;;;;;;9.37;100.00;101290.48;1720012;83;21037;-82
2022/05/05 04:53:50;;;;;;;4.83;2.62;;;;;;;9.38;100.00;101296.05;1720381;83;20986;-78
2022/05/05 04:56:17;;;;;;;5.35;2.15;;;;;;;9.40;100.00;101294.66;1720639;83;21041;-77
2022/05/05 04:58:44;;;;;;;4.12;2.60;;;;;;;9.42;100.00;101294.93;1720045;83;21142;-78
2022/05/05 05:01:12;;;;;;;8.38;2.40;;;;;;;9.46;100.00;101300.78;1720405;82;21033;-77
2022/05/05 05:03:39;;;;;;;5.12;2.02;;;;;;;9.52;100.00;101303.48;1719981;83;21870;-77
2022/05/05 05:06:09;;;;;;;3.55;2.22;;;;;;;9.56;100.00;101312.79;1712545;82;20986;-77
2022/05/05 05:08:39;;;;;;;4.53;2.70;;;;;;;9.55;100.00;101313.72;1716293;82;21014;-77
2022/05/05 05:11:06;;;;;;;2.87;1.80;;;;;;;9.57;100.00;101314.47;1719577;83;21159;-81
2022/05/05 05:13:36;;;;;;;6.42;2.50;;;;;;;9.59;100.00;101317.34;1719306;82;21590;-79
2022/05/05 05:16:04;;;;;;;5.30;2.60;;;;;;;9.63;100.00;101314.91;1690864;83;21021;-80
2022/05/05 05:18:31;;;;;;;6.28;2.47;;;;;;;9.68;100.00;101319.84;1712626;82;21475;-78
2022/05/05 05:20:59;;;;;;;5.60;2.25;;;;;;;9.70;100.00;101322.34;1719907;82;21061;-80
2022/05/05 05:23:26;;;;;;;5.08;2.42;;;;;;;9.73;100.00;101328.67;1719587;83;21219;-77
2022/05/05 05:25:53;;;;;;;6.45;2.27;;;;;;;9.75;100.00;101333.33;1719611;82;21016;-76
2022/05/05 05:28:20;;;;;;;3.98;2.05;;;;;;;9.82;100.00;101329.42;1719738;83;21614;-77
2022/05/05 05:30:47;;;;;;;7.17;2.37;;;;;;;9.93;100.00;101335.27;1668812;83;21085;-78
2022/05/05 05:33:15;;;;;;;5.83;2.30;;;;;;;10.06;100.00;101336.18;1719857;82;21096;-76
2022/05/05 05:35:44;;;;;;;7.50;2.35;;;;;;;10.18;100.00;101347.59;1719729;82;21146;-78
2022/05/05 05:38:20;;;;;;;6.30;2.42;;;;;;;10.27;100.00;101346.21;1717367;82;21567;-76
2022/05/05 05:40:48;;;;;;;9.15;2.45;;;;;;;10.35;100.00;101357.44;1702931;83;21065;-76
2022/05/05 05:43:15;;;;;;;7.50;2.35;;;;;;;10.41;100.00;101362.31;1742938;82;21591;-75
2022/05/05 05:45:43;;;;;;;2.77;1.95;;;;;;;10.48;100.00;101363.59;1706899;82;21069;-77
2022/05/05 05:48:10;;;;;;;5.30;2.27;;;;;;;10.56;100.00;101361.34;1742825;80;21090;-78
2022/05/05 05:50:38;;;;;;;4.42;2.35;;;;;;;10.63;100.00;101362.25;1691424;83;22097;-76
2022/05/05 05:53:05;;;;;;;5.12;2.45;;;;;;;10.68;98.11;101366.69;1743420;81;21425;-76
2022/05/05 05:55:33;;;;;;;6.55;2.30;;;;;;;10.76;98.27;101372.25;1707107;83;21112;-76
2022/05/05 05:58:00;;;;;;;8.98;2.30;;;;;;;10.80;86.16;101375.05;1742883;80;21096;-80
2022/05/05 06:00:28;;;;;;;3.35;2.20;;;;;;;10.82;88.18;101386.66;1707110;83;21812;-80
2022/05/05 06:05:42;;;;;;;5.58;1.80;;;;;;;10.91;81.59;101377.41;1707022;82;21116;-77
2022/05/05 06:08:10;;;;;;;7.47;1.92;;;;;;;10.99;85.47;101375.14;1742981;81;21031;-76
2022/05/05 06:10:39;;;;;;;4.25;1.87;;;;;;;11.08;81.33;101374.55;1706095;84;21081;-78
2022/05/05 06:13:08;;;;;;;3.92;1.90;;;;;;;11.15;78.31;101378.90;1742646;81;21031;-76
2022/05/05 06:15:36;;;;;;;5.78;2.00;;;;;;;11.24;85.07;101386.57;1706590;83;21607;-76
2022/05/05 06:18:04;;;;;;;3.90;1.80;;;;;;;11.35;85.48;101388.84;1742564;81;21579;-76
2022/05/05 06:20:34;;;;;;;8.38;2.02;;;;;;;11.46;82.97;101389.91;1706818;84;21010;-77
2022/05/05 06:23:02;;;;;;;7.40;2.17;;;;;;;11.54;81.91;101395.94;1742967;81;21026;-77
2022/05/05 06:25:29;;;;;;;4.67;2.37;;;;;;;11.59;79.25;101397.27;1707116;82;21085;-78
2022/05/05 06:27:59;;;;;;;8.25;1.90;;;;;;;11.60;78.09;101405.47;1742977;81;20971;-78
2022/05/05 06:30:26;;;;;;;4.42;2.22;;;;;;;11.58;74.02;101406.03;1706931;82;21002;-76
2022/05/05 06:32:53;;;;;;;8.68;2.10;;;;;;;11.61;73.17;101409.75;1742952;82;21042;-79
2022/05/05 06:35:20;;;;;;;6.05;1.57;;;;;;;11.65;70.27;101414.29;1707353;83;20959;-78
2022/05/05 06:37:50;;;;;;;4.67;1.60;;;;;;;11.68;69.58;101408.39;1742872;82;21160;-77
2022/05/05 06:40:16;;;;;;;3.50;1.70;;;;;;;11.72;71.89;101412.94;1707418;82;21054;-77
2022/05/05 06:42:44;;;;;;;6.67;1.90;;;;;;;11.80;71.47;101415.05;1742712;80;21564;-76
2022/05/05 06:45:11;;;;;;;2.92;1.60;;;;;;;11.90;68.37;101419.98;1707200;84;21061;-76
2022/05/05 06:47:38;;;;;;;5.85;1.77;;;;;;;11.99;67.67;101415.95;1742728;81;21051;-78
2022/05/05 06:50:07;;;;;;;6.72;1.60;;;;;;;12.14;70.28;101420.58;1707328;84;21171;-78
2022/05/05 06:52:34;;;;;;;6.83;1.70;;;;;;;12.25;65.99;101423.30;1742698;81;21043;-76
2022/05/05 06:55:03;;;;;;;6.37;1.67;;;;;;;12.31;64.93;101430.69;1685210;84;21038;-77
2022/05/05 06:57:32;;;;;;;9.18;2.27;;;;;;;12.42;66.82;101433.86;1742306;81;21010;-78
2022/05/05 06:59:59;;;;;;;5.00;1.62;;;;;;;12.49;61.91;101440.80;1706834;84;21068;-79
2022/05/05 07:02:26;;;;;;;2.85;1.70;;;;;;;12.49;60.67;101439.50;1743304;81;21849;-78
2022/05/05 07:07:40;;;;;;;2.33;1.30;;;;;;;12.53;60.09;101446.19;1742865;82;21022;-79
2022/05/05 07:12:53;;;;;;;3.42;1.70;;;;;;;12.58;58.55;101451.06;1731068;82;21710;-83
2022/05/05 07:15:21;;;;;;;8.30;1.72;;;;;;;12.67;57.74;101452.21;1707210;84;21361;-84
2022/05/05 07:17:48;;;;;;;6.40;1.60;;;;;;;12.79;55.32;101455.25;1742844;82;21572;-82
2022/05/05 07:20:16;;;;;;;2.42;1.50;;;;;;;12.88;56.11;101459.82;1707188;84;21065;-81
2022/05/05 07:22:46;;;;;;;8.30;1.80;;;;;;;12.94;54.59;101455.45;1743326;81;21417;-79
2022/05/05 07:25:13;;;;;;;4.67;1.45;;;;;;;13.07;56.34;101457.20;1706972;83;21144;-79
2022/05/05 07:27:41;;;;;;;7.42;1.90;;;;;;;13.17;56.46;101454.29;1742821;80;21858;-80
2022/05/05 07:30:10;;;;;;;3.37;1.60;;;;;;;13.26;53.52;101459.31;1707050;84;20994;-79
2022/05/05 07:32:37;;;;;;;5.17;1.65;;;;;;;13.28;52.63;101453.95;1743268;81;21059;-78
2022/05/05 07:35:06;;;;;;;5.33;1.50;;;;;;;13.27;51.33;101459.67;1706836;83;21097;-78
2022/05/05 07:37:36;;;;;;;2.65;1.65;;;;;;;13.30;53.77;101455.99;1742697;81;21590;-77
2022/05/05 07:40:07;;;;;;;2.90;1.47;;;;;;;13.36;52.76;101457.70;1706940;83;22437;-78
2022/05/05 07:42:37;;;;;;;3.92;1.60;;;;;;;13.44;52.11;101462.38;1742916;80;21066;-79
2022/05/05 07:45:05;;;;;;;2.98;1.52;;;;;;;13.55;54.79;101455.89;1707270;83;21272;-79
2022/05/05 07:47:33;;;;;;;5.33;1.55;;;;;;;13.69;51.33;101464.48;1743062;81;21038;-78
2022/05/05 07:50:02;;;;;;;5.50;2.00;;;;;;;13.81;53.08;101463.58;1707158;83;21049;-82
2022/05/05 07:52:29;;;;;;;2.72;1.60;;;;;;;13.90;49.11;101469.06;1742925;81;21125;-79
2022/05/05 07:54:57;;;;;;;3.98;1.55;;;;;;;13.85;46.63;101466.30;1707065;83;21011;-79
2022/05/05 07:57:24;;;;;;;1.57;1.37;;;;;;;13.80;50.37;101472.38;1742764;80;21553;-80
2022/05/05 07:59:52;;;;;;;3.67;1.50;;;;;;;13.82;46.79;101470.45;1707111;83;21061;-80
2022/05/05 08:02:19;;;;;;;3.17;1.47;;;;;;;13.86;47.14;101472.39;1742884;81;21011;-78
2022/05/05 08:04:46;;;;;;;1.87;1.62;;;;;;;13.90;47.46;101467.75;1707419;82;21240;-78
2022/05/05 08:07:14;;;;;;;3.60;1.50;;;;;;;13.94;45.57;101462.14;1742594;81;21066;-77
2022/05/05 08:09:45;;;;;;;2.92;1.50;;;;;;;14.00;45.31;101480.03;1704254;84;21009;-79
2022/05/05 08:12:15;;;;;;;4.03;1.47;;;;;;;14.08;45.66;101480.73;1718581;82;21030;-79
2022/05/05 08:14:43;;;;;;;3.85;1.25;;;;;;;14.14;45.86;101476.33;1726548;80;21026;-79
2022/05/05 08:17:10;;;;;;;4.03;1.62;;;;;;;14.22;43.70;101485.41;1721278;82;21432;-79
2022/05/05 08:19:37;;;;;;;3.20;1.50;;;;;;;14.24;42.54;101469.08;1707065;83;21026;-79
2022/05/05 08:22:05;;;;;;;4.35;1.57;;;;;;;14.28;47.36;101467.91;1742790;82;21074;-80
2022/05/05 08:30:06;;;;;;;4.40;1.72;;;;;;;14.77;48.08;101473.27;1678463;84;21254;-80
2022/05/05 08:32:33;;;;;;;5.17;1.85;;;;;;;14.82;45.79;101471.10;1713076;82;21027;-80
2022/05/05 08:35:00;;;;;;;4.15;1.70;;;;;;;14.76;46.14;101477.30;1678589;84;21065;-80
2022/05/05 08:37:27;;;;;;;1.98;1.47;;;;;;;14.70;46.23;101485.20;1714383;82;21054;-79
2022/05/05 08:39:54;;;;;;;2.77;1.67;;;;;;;14.65;47.44;101475.50;1687450;83;21097;-78
2022/05/05 08:42:24;;;;;;;3.58;1.72;;;;;;;14.72;45.24;101479.33;1745166;80;21129;-79
2022/05/05 08:44:52;;;;;;;2.22;1.60;;;;;;;14.81;44.40;101479.92;1710748;83;21017;-79
2022/05/05 08:47:24;;;;;;;2.70;1.67;;;;;;;14.87;43.42;101475.13;1674392;84;21098;-79
2022/05/05 08:49:59;;;;;;;3.17;1.60;;;;;;;14.93;44.88;101487.28;1689400;84;21070;-84
2022/05/05 08:52:50;;;;;;;3.80;1.85;;;;;;;15.03;44.50;101476.06;1683322;84;21619;-79
2022/05/05 08:55:20;;;;;;;4.97;2.10;;;;;;;15.09;43.56;101473.78;1697464;84;21146;-81
2022/05/05 08:57:48;;;;;;;3.90;1.80;;;;;;;15.11;43.81;101482.34;1706619;83;21058;-80
2022/05/05 09:00:17;;;;;;;4.40;1.60;;;;;;;15.11;44.24;101479.72;1701757;83;21034;-79
2022/05/05 09:02:44;;;;;;;3.83;1.75;;;;;;;15.12;44.98;101482.70;1680994;85;21075;-78
2022/05/05 09:05:47;;;;;;;4.00;1.75;;;;;;;15.14;44.46;101474.73;1701870;83;21009;-78
2022/05/05 09:08:25;;;;;;;3.42;1.80;;;;;;;15.22;46.65;101479.33;1686990;83;21196;-79
2022/05/05 09:10:55;;;;;;;4.35;1.80;;;;;;;15.36;43.15;101471.16;1707526;83;21045;-79
2022/05/05 09:13:27;;;;;;;4.33;1.62;;;;;;;15.43;44.51;101478.88;1699997;83;21102;-80
2022/05/05 09:15:55;;;;;;;4.33;1.70;;;;;;;15.48;42.67;101479.81;1706763;83;21069;-79
2022/05/05 09:18:30;;;;;;;3.08;1.65;;;;;;;15.54;42.58;101481.11;1706884;83;21053;-80
2022/05/05 09:21:03;;;;;;;5.35;1.77;;;;;;;15.58;42.21;101477.29;1691090;83;21237;-79
2022/05/05 09:24:34;;;;;;;4.85;1.65;;;;;;;15.67;41.72;101485.69;1703324;83;21043;-78
2022/05/05 09:26:10;;;;;;;4.58;1.80;;;;;;;15.70;42.29;101479.38;1703591;83;21073;-80
2022/05/05 09:28:38;;;;;;;5.28;1.72;;;;;;;15.72;40.26;101473.49;1703819;83;21560;-79
2022/05/05 09:31:10;;;;;;;4.20;1.77;;;;;;;15.72;42.94;101476.97;1694879;83;21094;-78
2022/05/05 09:33:43;;;;;;;5.03;1.72;;;;;;;15.76;41.00;101470.98;1696268;83;21166;-80
2022/05/05 09:36:16;;;;;;;5.55;1.60;;;;;;;15.68;41.91;101475.55;1683826;84;21091;-79
2022/05/05 09:39:03;;;;;;;2.95;1.80;;;;;;;15.44;39.14;101472.67;1701699;83;21546;-78
2022/05/05 09:41:36;;;;;;;2.87;1.60;;;;;;;15.21;39.79;101480.29;1709188;83;21522;-78
2022/05/05 09:44:24;;;;;;;3.35;1.57;;;;;;;15.21;42.08;101481.59;1688219;83;21155;-78
2022/05/05 09:47:05;;;;;;;;;;;;;;;;;;;;;
2022/05/05 09:49:29;;;;;;;2.30;1.60;;;;;;;15.54;41.24;101483.73;1672754;83;21091;-78
2022/05/05 09:57:41;;;;;;;5.55;2.08;;;;;;;15.71;41.54;101499.39;1742057;80;21054;-78
2022/05/05 10:05:51;;;;;;;2.33;1.65;;;;;;;16.06;40.36;101500.41;1742731;80;21047;-78
2022/05/05 10:08:36;;;;;;;5.12;2.00;;;;;;;16.15;38.19;101489.61;1745462;80;21056;-78
2022/05/05 10:11:09;;;;;;;3.08;1.65;;;;;;;16.15;37.03;101488.77;1742741;80;21116;-81
2022/05/05 10:13:39;;;;;;;4.28;1.60;;;;;;;16.15;38.34;101494.02;1741107;82;21122;-78
2022/05/05 10:16:08;;;;;;;4.08;2.10;;;;;;;16.26;40.71;101491.81;1748039;80;20996;-78
2022/05/05 10:18:38;;;;;;;3.05;1.70;;;;;;;16.35;39.21;101501.05;1723374;82;21085;-78
2022/05/05 10:21:16;;;;;;;2.17;1.62;;;;;;;16.40;39.47;101492.27;1697083;82;21618;-78
2022/05/05 10:24:15;;;;;;;2.50;1.82;;;;;;;16.46;40.84;101493.55;1745268;82;21070;-79
2022/05/05 10:26:44;;;;;;;4.72;1.85;;;;;;;16.50;39.43;101502.00;1728089;82;21140;-79
2022/05/05 10:29:35;;;;;;;5.58;1.70;;;;;;;16.49;40.16;101497.23;1731013;82;20978;-79
2022/05/05 10:32:21;;;;;;;3.72;1.70;;;;;;;16.51;39.36;101505.80;1747622;80;21665;-78
2022/05/05 10:34:55;;;;;;;3.50;1.47;;;;;;;16.50;38.20;101491.48;1735736;81;21713;-80
2022/05/05 10:37:37;;;;;;;1.77;1.20;;;;;;;16.49;38.51;101497.23;1721839;82;21705;-80
2022/05/05 10:40:10;;;;;;;4.75;2.37;;;;;;;16.50;38.63;101491.48;1740581;82;22255;-79
2022/05/05 10:42:44;;;;;;;2.45;1.67;;;;;;;16.51;37.59;101501.86;1704912;82;21475;-79
2022/05/05 10:45:28;;;;;;;3.85;1.87;;;;;;;16.51;39.58;101493.16;1716067;82;21126;-79
2022/05/05 10:48:04;;;;;;;2.12;1.67;;;;;;;16.60;39.26;101498.08;1732192;81;20994;-79
2022/05/05 10:50:43;;;;;;;3.70;1.60;;;;;;;16.75;37.81;101501.19;1751997;80;21170;-79
2022/05/05 10:53:28;;;;;;;3.45;1.65;;;;;;;16.85;35.96;101496.78;1721577;81;21166;-79
2022/05/05 10:55:58;;;;;;;2.17;1.60;;;;;;;16.96;36.48;101498.00;1731506;81;21021;-78
2022/05/05 10:59:04;;;;;;;2.33;1.60;;;;;;;17.04;35.47;101492.07;1752593;80;21052;-79
2022/05/05 11:01:49;;;;;;;4.17;1.75;;;;;;;17.13;37.24;101497.83;1728711;81;21079;-79
2022/05/05 11:04:31;;;;;;;5.85;2.00;;;;;;;17.21;37.19;101483.97;1721609;80;21101;-79
2022/05/05 11:07:30;;;;;;;2.65;1.77;;;;;;;17.15;35.67;101492.42;1734728;81;21524;-80
2022/05/05 11:10:00;;;;;;;3.85;2.12;;;;;;;17.02;34.52;101498.77;1747035;81;21572;-79
2022/05/05 11:12:37;;;;;;;3.52;1.85;;;;;;;16.92;35.06;101500.53;1741446;81;21025;-79
2022/05/05 11:23:46;;;;;;;3.80;1.75;;;;;;;17.23;35.97;101499.15;1727167;81;21099;-78
2022/05/05 11:26:16;;;;;;;6.62;1.82;;;;;;;17.29;34.77;101497.28;1729354;80;21023;-78
2022/05/05 11:28:45;;;;;;;3.20;1.55;;;;;;;17.27;33.69;101506.28;1744842;80;21513;-78
2022/05/05 11:31:20;;;;;;;2.47;1.80;;;;;;;17.32;33.55;101500.96;1744710;81;21095;-81
2022/05/05 11:33:57;;;;;;;3.77;1.87;;;;;;;17.39;35.54;101499.91;1726389;81;21260;-78
2022/05/05 11:36:41;;;;;;;2.02;1.70;;;;;;;17.46;34.04;101504.14;1747018;81;21146;-79
2022/05/05 11:39:06;;;;;;;2.50;1.80;;;;;;;17.49;33.40;101506.50;1733101;81;21130;-79
2022/05/05 11:41:35;;;;;;;2.17;1.50;;;;;;;17.41;31.72;101498.47;1745417;81;21066;-79
2022/05/05 11:44:15;;;;;;;1.95;1.60;;;;;;;17.23;32.67;101503.56;1732175;81;21378;-79
2022/05/05 11:46:44;;;;;;;3.67;1.92;;;;;;;17.20;34.69;101499.41;1740960;82;21175;-78
2022/05/05 11:49:12;;;;;;;2.20;1.67;;;;;;;17.27;33.88;101501.84;1741008;82;21017;-79
2022/05/05 11:51:42;;;;;;;2.50;1.70;;;;;;;17.39;32.19;101505.66;1717367;82;21139;-78
2022/05/05 11:54:35;;;;;;;1.92;1.55;;;;;;;17.40;30.79;101500.25;1715233;82;21071;-77
2022/05/05 11:57:05;;;;;;;1.57;1.20;;;;;;;17.39;30.58;101513.06;1723504;81;21081;-79
2022/05/05 12:02:22;;;;;;;1.47;1.37;;;;;;;17.52;31.31;101498.30;1716310;82;21050;-78
2022/05/05 12:04:53;;;;;;;2.77;1.45;;;;;;;17.61;30.68;101511.14;1692619;82;21110;-83
2022/05/05 12:07:23;;;;;;;1.75;1.45;;;;;;;17.69;29.49;101504.69;1731838;81;21044;-78
2022/05/05 12:10:02;;;;;;;2.50;1.70;;;;;;;17.75;29.57;101507.22;1737452;81;21475;-78
2022/05/05 12:12:31;;;;;;;2.02;1.50;;;;;;;17.79;27.58;101508.12;1720847;82;21124;-83
2022/05/05 12:15:01;;;;;;;1.42;1.32;;;;;;;17.82;28.92;101509.16;1725931;82;21696;-79
2022/05/05 12:17:42;;;;;;;1.50;1.40;;;;;;;17.90;28.99;101504.98;1715011;82;21571;-78
2022/05/05 12:20:12;;;;;;;1.92;1.47;;;;;;;17.95;27.50;101505.38;1689261;84;21061;-77
2022/05/05 12:22:43;;;;;;;2.22;1.45;;;;;;;17.87;28.41;101506.58;1736729;81;21099;-82
2022/05/05 12:25:15;;;;;;;2.47;1.42;;;;;;;17.75;27.64;101504.59;1736367;81;21042;-79
2022/05/05 12:28:00;;;;;;;1.95;1.37;;;;;;;17.73;28.61;101498.16;1740331;82;21036;-78